createdAt,value
2018-08-13T00:01:10.518Z,100659.62
2018-08-13T00:03:39.061Z,100658.28
2018-08-13T00:06:07.683Z,100660.47
2018-08-13T00:08:36.237Z,100657.45
2018-08-13T00:11:04.921Z,100653.82
2018-08-13T00:13:33.485Z,100652.91
2018-08-13T00:16:03.227Z,100650.72
2018-08-13T00:18:31.770Z,100650.23
2018-08-13T00:21:26.536Z,100648.48
2018-08-13T00:23:55.006Z,100648.98
2018-08-13T00:26:23.543Z,100654.36
2018-08-13T00:28:52.125Z,100649.39
2018-08-13T00:31:20.590Z,100652.85
2018-08-13T00:33:49.172Z,100651.48
2018-08-13T00:36:57.353Z,100640.37
2018-08-13T00:39:25.962Z,100634.20
2018-08-13T00:41:54.492Z,100630.20
2018-08-13T00:44:22.965Z,100630.69
2018-08-13T00:46:51.517Z,100622.67
2018-08-13T00:49:20.025Z,100623.16
2018-08-13T00:51:48.641Z,100618.30
2018-08-13T00:54:17.161Z,100614.77
2018-08-13T00:56:45.688Z,100617.81
2018-08-13T00:59:14.250Z,100615.96
2018-08-13T01:01:42.722Z,100610.59
2018-08-13T01:04:26.468Z,100607.95
2018-08-13T01:06:55.064Z,100595.62
2018-08-13T01:09:23.657Z,100592.16
2018-08-13T01:11:52.223Z,100580.65
2018-08-13T01:14:21.542Z,100573.58
2018-08-13T01:16:50.128Z,100566.50
2018-08-13T01:19:18.723Z,100565.68
2018-08-13T01:21:47.307Z,100565.28
2018-08-13T01:24:15.863Z,100565.34
2018-08-13T01:26:44.522Z,100562.84
2018-08-13T01:29:13.046Z,100557.98
2018-08-13T01:31:41.731Z,100553.13
2018-08-13T01:34:17.660Z,100550.52
2018-08-13T01:36:46.261Z,100562.70
2018-08-13T01:39:14.857Z,100567.75
2018-08-13T01:41:43.406Z,100564.23
2018-08-13T01:44:11.900Z,100556.12
2018-08-13T01:46:40.697Z,100548.53
2018-08-13T01:49:09.261Z,100546.27
2018-08-13T01:51:37.740Z,100551.58
2018-08-13T01:54:06.298Z,100548.91
2018-08-13T01:57:25.361Z,100547.16
2018-08-13T01:59:53.895Z,100548.91
2018-08-13T02:02:22.475Z,100545.34
2018-08-13T02:04:50.976Z,100536.48
2018-08-13T02:07:19.539Z,100531.56
2018-08-13T02:09:48.124Z,100541.38
2018-08-13T02:12:16.750Z,100539.16
2018-08-13T02:14:45.271Z,100529.34
2018-08-13T02:17:13.766Z,100526.70
2018-08-13T02:19:42.345Z,100528.04
2018-08-13T02:22:10.833Z,100524.95
2018-08-13T02:24:39.340Z,100519.19
2018-08-13T02:27:07.839Z,100516.48
2018-08-13T02:29:36.382Z,100515.55
2018-08-13T02:32:05.100Z,100525.81
2018-08-13T02:34:33.713Z,100531.38
2018-08-13T02:37:02.172Z,100536.80
2018-08-13T02:39:30.648Z,100537.68
2018-08-13T02:41:59.243Z,100546.88
2018-08-13T02:44:27.877Z,100542.70
2018-08-13T02:46:56.484Z,100563.09
2018-08-13T02:49:25.074Z,100556.23
2018-08-13T02:51:53.646Z,100552.08
2018-08-13T02:54:22.388Z,100548.87
2018-08-13T02:56:50.925Z,100553.39
2018-08-13T02:59:20.195Z,100554.38
2018-08-13T03:01:51.134Z,100562.16
2018-08-13T03:04:22.419Z,100564.50
2018-08-13T03:06:53.732Z,100560.20
2018-08-13T03:09:25.661Z,100561.64
2018-08-13T03:11:57.965Z,100571.89
2018-08-13T03:14:28.220Z,100567.66
2018-08-13T03:16:59.651Z,100576.71
2018-08-13T03:19:30.429Z,100595.00
2018-08-13T03:22:01.264Z,100587.92
2018-08-13T03:24:32.200Z,100584.00
2018-08-13T03:27:02.957Z,100582.80
2018-08-13T03:29:33.457Z,100587.92
2018-08-13T03:32:04.449Z,100579.67
2018-08-13T03:34:33.153Z,100574.08
2018-08-13T03:37:03.471Z,100562.27
2018-08-13T03:39:34.379Z,100558.44
2018-08-13T03:42:05.653Z,100562.23
2018-08-13T03:44:36.517Z,100554.02
2018-08-13T03:47:07.499Z,100552.75
2018-08-13T03:49:38.184Z,100551.52
2018-08-13T03:52:10.201Z,100570.25
2018-08-13T03:54:41.250Z,100579.66
2018-08-13T03:57:12.446Z,100576.14
2018-08-13T03:59:58.186Z,100593.91
2018-08-13T04:02:56.702Z,100639.20
2018-08-13T04:05:27.997Z,100637.09
2018-08-13T04:07:58.508Z,100632.20
2018-08-13T04:10:28.373Z,100631.77
2018-08-13T04:12:58.784Z,100621.58
2018-08-13T04:15:28.825Z,100613.61
2018-08-13T04:17:59.292Z,100609.19
2018-08-13T04:20:30.005Z,100613.17
2018-08-13T04:23:00.298Z,100615.83
2018-08-13T04:25:30.744Z,100617.16
2018-08-13T04:28:01.471Z,100612.32
2018-08-13T04:30:31.944Z,100606.14
2018-08-13T04:33:03.047Z,100603.05
2018-08-13T04:35:33.701Z,100599.07
2018-08-13T04:38:04.005Z,100597.32
2018-08-13T04:40:34.298Z,100589.78
2018-08-13T04:43:05.032Z,100573.39
2018-08-13T04:45:36.024Z,100566.28
2018-08-13T04:48:19.479Z,100568.03
2018-08-13T04:50:49.935Z,100564.47
2018-08-13T04:53:21.055Z,100562.25
2018-08-13T04:55:51.011Z,100551.59
2018-08-13T04:58:21.460Z,100548.92
2018-08-13T05:00:52.726Z,100530.31
2018-08-13T05:03:23.280Z,100558.67
2018-08-13T05:05:53.561Z,100565.76
2018-08-13T05:08:23.821Z,100553.33
2018-08-13T05:10:54.896Z,100577.23
2018-08-13T05:13:25.602Z,100564.38
2018-08-13T05:15:56.108Z,100550.62
2018-08-13T05:18:26.084Z,100539.97
2018-08-13T05:20:57.863Z,100518.69
2018-08-13T05:23:37.413Z,100518.66
2018-08-13T05:26:07.873Z,100503.56
2018-08-13T05:28:38.217Z,100507.98
2018-08-13T05:31:08.597Z,100521.74
2018-08-13T05:33:37.181Z,100535.48
2018-08-13T05:36:05.801Z,100532.39
2018-08-13T05:38:50.658Z,100521.34
2018-08-13T05:41:19.306Z,100503.16
2018-08-13T05:43:47.933Z,100512.45
2018-08-13T05:46:22.223Z,100481.86
2018-08-13T05:49:06.099Z,100497.36
2018-08-13T05:51:34.649Z,100515.15
2018-08-13T05:54:03.117Z,100508.95
2018-08-13T05:56:31.641Z,100506.73
2018-08-13T05:59:00.207Z,100486.76
2018-08-13T06:01:28.941Z,100499.58
2018-08-13T06:03:57.661Z,100504.44
2018-08-13T06:06:26.149Z,100516.39
2018-08-13T06:08:54.750Z,100524.81
2018-08-13T06:11:23.347Z,100513.71
2018-08-13T06:13:51.825Z,100513.23
2018-08-13T06:16:20.414Z,100512.73
2018-08-13T06:18:48.985Z,100517.09
2018-08-13T06:21:17.565Z,100517.05
2018-08-13T06:23:46.152Z,100516.97
2018-08-13T06:26:14.773Z,100523.09
2018-08-13T06:28:43.305Z,100527.47
2018-08-13T06:31:11.809Z,100531.36
2018-08-13T06:33:40.363Z,100531.70
2018-08-13T06:36:08.844Z,100535.63
2018-08-13T06:38:37.370Z,100531.56
2018-08-13T06:41:05.920Z,100534.17
2018-08-13T06:43:34.424Z,100533.69
2018-08-13T06:46:02.875Z,100540.29
2018-08-13T06:48:31.415Z,100540.27
2018-08-13T06:51:00.013Z,100538.44
2018-08-13T06:53:28.521Z,100539.29
2018-08-13T06:55:57.047Z,100535.26
2018-08-13T06:58:25.588Z,100541.94
2018-08-13T07:00:54.420Z,100540.15
2018-08-13T07:03:22.837Z,100548.11
2018-08-13T07:05:51.325Z,100551.14
2018-08-13T07:08:19.862Z,100546.20
2018-08-13T07:10:48.441Z,100547.45
2018-08-13T07:13:16.996Z,100559.37
2018-08-13T07:15:45.624Z,100561.53
2018-08-13T07:18:14.153Z,100554.38
2018-08-13T07:20:42.670Z,100562.31
2018-08-13T07:23:11.236Z,100558.71
2018-08-13T07:25:39.834Z,100555.53
2018-08-13T07:28:08.798Z,100557.72
2018-08-13T07:30:37.306Z,100567.84
2018-08-13T07:33:05.777Z,100568.16
2018-08-13T07:35:34.352Z,100568.06
2018-08-13T07:38:02.978Z,100568.54
2018-08-13T07:40:32.100Z,100571.28
2018-08-13T07:43:00.588Z,100571.73
2018-08-13T07:45:29.321Z,100581.02
2018-08-13T07:47:57.757Z,100579.27
2018-08-13T07:57:09.370Z,100591.00
2018-08-13T07:59:37.875Z,100595.33
2018-08-13T08:02:06.421Z,100595.69
2018-08-13T08:05:02.960Z,100597.78
2018-08-13T08:07:31.565Z,100594.03
2018-08-13T08:10:00.141Z,100593.51
2018-08-13T08:12:28.693Z,100596.48
2018-08-13T08:14:57.327Z,100594.43
2018-08-13T08:17:25.878Z,100592.53
2018-08-13T08:19:54.434Z,100599.23
2018-08-13T08:22:22.990Z,100595.84
2018-08-13T08:24:52.075Z,100593.31
2018-08-13T08:27:20.589Z,100594.27
2018-08-13T08:29:49.096Z,100601.87
2018-08-13T08:32:17.531Z,100603.73
2018-08-13T08:34:46.208Z,100605.86
2018-08-13T08:37:14.768Z,100603.94
2018-08-13T08:39:43.356Z,100608.34
2018-08-13T08:42:11.902Z,100610.05
2018-08-13T08:44:40.376Z,100606.76
2018-08-13T08:47:08.924Z,100613.70
2018-08-13T08:49:37.470Z,100607.39
2018-08-13T08:52:06.245Z,100606.56
2018-08-13T08:54:34.742Z,100603.35
2018-08-13T08:57:03.345Z,100606.34
2018-08-13T08:59:31.996Z,100604.03
2018-08-13T09:02:00.641Z,100607.83
2018-08-13T09:04:29.180Z,100608.38
2018-08-13T09:06:57.747Z,100607.38
2018-08-13T09:09:26.349Z,100598.83
2018-08-13T09:11:54.913Z,100609.95
2018-08-13T09:14:23.385Z,100596.34
2018-08-13T09:16:57.980Z,100599.83
2018-08-13T09:19:37.718Z,100597.58
2018-08-13T09:22:17.487Z,100598.95
2018-08-13T09:24:57.398Z,100599.27
2018-08-13T09:27:37.242Z,100599.66
2018-08-13T09:30:26.225Z,100600.78
2018-08-13T09:33:06.726Z,100603.77
2018-08-13T09:35:35.735Z,100601.31
2018-08-13T09:38:04.401Z,100600.66
2018-08-13T09:40:33.741Z,100592.91
2018-08-13T09:43:02.330Z,100594.32
2018-08-13T09:45:30.968Z,100586.39
2018-08-13T09:47:59.477Z,100582.73
2018-08-13T09:50:28.112Z,100580.19
2018-08-13T09:52:56.660Z,100576.63
2018-08-13T09:55:29.944Z,100573.11
2018-08-13T09:57:58.408Z,100567.29
2018-08-13T10:00:32.277Z,100568.80
2018-08-13T10:03:00.784Z,100567.83
2018-08-13T10:05:29.292Z,100568.15
2018-08-13T10:07:57.858Z,100563.97
2018-08-13T10:10:26.431Z,100560.75
2018-08-13T10:12:54.965Z,100558.33
2018-08-13T10:15:23.457Z,100555.61
2018-08-13T10:17:52.041Z,100555.61
2018-08-13T10:20:21.690Z,100561.67
2018-08-13T10:22:50.316Z,100556.26
2018-08-13T10:25:18.854Z,100556.95
2018-08-13T10:27:47.372Z,100561.44
2018-08-13T10:30:16.853Z,100562.16
2018-08-13T10:32:45.734Z,100562.84
2018-08-13T10:35:14.268Z,100553.41
2018-08-13T10:37:43.333Z,100558.64
2018-08-13T10:40:14.815Z,100564.42
2018-08-13T10:42:43.361Z,100562.56
2018-08-13T10:45:12.101Z,100553.79
2018-08-13T10:47:40.597Z,100558.28
2018-08-13T10:50:11.080Z,100556.83
2018-08-13T10:52:53.012Z,100549.94
2018-08-13T10:55:21.545Z,100544.93
2018-08-13T10:57:50.007Z,100537.33
2018-08-13T11:00:18.468Z,100537.48
2018-08-13T11:02:47.149Z,100537.91
2018-08-13T11:05:16.152Z,100534.20
2018-08-13T11:07:44.833Z,100527.33
2018-08-13T11:10:14.488Z,100519.33
2018-08-13T11:12:43.212Z,100516.17
2018-08-13T11:15:14.205Z,100521.32
2018-08-13T11:17:43.081Z,100514.63
2018-08-13T11:20:11.721Z,100519.22
2018-08-13T11:22:41.394Z,100515.48
2018-08-13T11:25:11.747Z,100519.50
2018-08-13T11:27:40.337Z,100507.72
2018-08-13T11:30:11.377Z,100503.78
2018-08-13T11:32:39.968Z,100499.03
2018-08-13T11:35:08.576Z,100518.02
2018-08-13T11:37:37.496Z,100517.33
2018-08-13T11:40:09.236Z,100517.78
2018-08-13T11:42:37.958Z,100519.36
2018-08-13T11:45:06.744Z,100516.13
2018-08-13T11:47:35.730Z,100516.67
2018-08-13T11:50:07.367Z,100507.86
2018-08-13T11:52:35.866Z,100503.52
2018-08-13T11:55:04.616Z,100501.20
2018-08-13T11:57:33.594Z,100502.59
2018-08-13T12:00:02.409Z,100504.76
2018-08-13T12:02:31.005Z,100506.36
2018-08-13T12:04:59.542Z,100509.47
2018-08-13T12:07:28.090Z,100509.84
2018-08-13T12:09:56.742Z,100514.25
2018-08-13T12:12:25.304Z,100520.20
2018-08-13T12:14:54.028Z,100510.28
2018-08-13T12:17:22.547Z,100502.80
2018-08-13T12:19:51.135Z,100500.48
2018-08-13T12:22:19.723Z,100495.71
2018-08-13T12:24:48.855Z,100492.80
2018-08-13T12:27:49.257Z,100493.34
2018-08-13T12:30:18.033Z,100493.00
2018-08-13T12:32:46.808Z,100485.44
2018-08-13T12:35:15.483Z,100482.13
2018-08-13T12:37:44.025Z,100475.34
2018-08-13T12:40:12.586Z,100470.63
2018-08-13T12:42:41.186Z,100468.80
2018-08-13T12:45:12.640Z,100476.15
2018-08-13T12:47:41.515Z,100482.20
2018-08-13T12:50:12.153Z,100485.44
2018-08-13T12:52:40.930Z,100482.13
2018-08-13T12:55:10.402Z,100494.16
2018-08-13T12:57:39.029Z,100498.41
2018-08-13T13:00:10.859Z,100496.55
2018-08-13T13:02:39.852Z,100498.20
2018-08-13T13:05:09.891Z,100512.37
2018-08-13T13:07:38.869Z,100529.66
2018-08-13T13:10:10.622Z,100539.69
2018-08-13T13:12:40.735Z,100550.78
2018-08-13T13:15:12.121Z,100560.80
2018-08-13T13:17:40.945Z,100561.63
2018-08-13T13:20:13.105Z,100568.51
2018-08-13T13:22:48.212Z,100581.20
2018-08-13T13:25:17.175Z,100582.23
2018-08-13T13:27:45.845Z,100581.90
2018-08-13T13:30:15.703Z,100596.14
2018-08-13T13:32:59.001Z,100580.21
2018-08-13T13:35:27.797Z,100578.50
2018-08-13T13:37:56.451Z,100578.52
2018-08-13T13:40:25.471Z,100564.35
2018-08-13T13:42:54.236Z,100554.55
2018-08-13T13:45:22.798Z,100546.59
2018-08-13T13:47:51.339Z,100544.83
2018-08-13T13:50:20.306Z,100550.61
2018-08-13T13:52:48.933Z,100569.30
2018-08-13T13:55:17.798Z,100572.83
2018-08-13T13:57:46.415Z,100577.30
2018-08-13T14:00:19.961Z,100581.19
2018-08-13T14:02:49.898Z,100575.30
2018-08-13T14:05:18.821Z,100568.97
2018-08-13T14:07:47.621Z,100571.53
2018-08-13T14:10:22.595Z,100575.84
2018-08-13T14:12:54.374Z,100585.52
2018-08-13T14:15:23.353Z,100575.61
2018-08-13T14:17:52.568Z,100572.56
2018-08-13T14:20:21.567Z,100576.50
2018-08-13T14:22:50.202Z,100571.48
2018-08-13T14:25:29.917Z,100564.87
2018-08-13T14:27:58.542Z,100565.94
2018-08-13T14:30:28.367Z,100560.01
2018-08-13T14:32:57.020Z,100568.61
2018-08-13T14:35:26.269Z,100569.11
2018-08-13T14:37:54.807Z,100569.95
2018-08-13T14:40:23.469Z,100575.39
2018-08-13T14:42:52.057Z,100572.78
2018-08-13T14:45:20.991Z,100568.45
2018-08-13T14:47:51.029Z,100565.41
2018-08-13T14:50:19.855Z,100567.66
2018-08-13T14:52:49.364Z,100566.10
2018-08-13T14:55:19.296Z,100568.87
2018-08-13T14:57:47.984Z,100571.81
2018-08-13T15:00:19.712Z,100570.59
2018-08-13T15:02:48.882Z,100581.48
2018-08-13T15:05:17.832Z,100581.14
2018-08-13T15:07:47.918Z,100571.91
2018-08-13T15:10:19.622Z,100574.70
2018-08-13T15:12:48.588Z,100575.28
2018-08-13T15:15:17.174Z,100583.29
2018-08-13T15:17:45.968Z,100585.05
2018-08-13T15:20:16.848Z,100585.48
2018-08-13T15:22:45.685Z,100590.22
2018-08-13T15:25:14.374Z,100586.76
2018-08-13T15:27:43.190Z,100598.02
2018-08-13T15:30:21.320Z,100597.30
2018-08-13T15:32:50.878Z,100589.55
2018-08-13T15:35:19.671Z,100593.78
2018-08-13T15:37:48.816Z,100587.01
2018-08-13T15:40:17.922Z,100580.09
2018-08-13T15:42:47.018Z,100587.91
2018-08-13T15:45:17.779Z,100588.09
2018-08-13T15:47:47.094Z,100585.11
2018-08-13T15:50:18.125Z,100590.66
2018-08-13T15:52:47.418Z,100583.86
2018-08-13T15:55:16.004Z,100581.02
2018-08-13T15:57:45.273Z,100583.66
2018-08-13T16:00:16.245Z,100584.55
2018-08-13T16:02:45.211Z,100582.61
2018-08-13T16:05:13.864Z,100584.66
2018-08-13T16:07:45.505Z,100589.00
2018-08-13T16:10:15.533Z,100592.71
2018-08-13T16:12:44.354Z,100593.66
2018-08-13T16:15:12.889Z,100592.67
2018-08-13T16:17:42.037Z,100592.06
2018-08-13T16:20:16.440Z,100599.16
2018-08-13T16:25:13.368Z,100595.12
2018-08-13T16:27:43.830Z,100606.37
2018-08-13T16:30:44.565Z,100616.76
2018-08-13T16:33:13.070Z,100620.48
2018-08-13T16:35:42.030Z,100625.67
2018-08-13T16:38:11.008Z,100629.03
2018-08-13T16:40:39.564Z,100626.87
2018-08-13T16:43:14.834Z,100612.12
2018-08-13T16:45:44.056Z,100620.45
2018-08-13T16:48:13.348Z,100609.92
2018-08-13T16:50:42.049Z,100609.64
2018-08-13T16:53:10.687Z,100615.10
2018-08-13T16:55:39.296Z,100619.66
2018-08-13T16:58:08.120Z,100618.41
2018-08-13T17:00:41.106Z,100611.75
2018-08-13T17:03:09.694Z,100620.22
2018-08-13T17:05:39.238Z,100619.41
2018-08-13T17:08:08.294Z,100619.45
2018-08-13T17:10:37.318Z,100627.98
2018-08-13T17:13:06.573Z,100623.63
2018-08-13T17:15:35.559Z,100627.25
2018-08-13T17:18:05.265Z,100629.56
2018-08-13T17:20:38.125Z,100625.66
2018-08-13T17:23:06.813Z,100620.88
2018-08-13T17:25:35.460Z,100620.48
2018-08-13T17:28:04.056Z,100622.28
2018-08-13T17:30:32.626Z,100620.53
2018-08-13T17:33:02.804Z,100620.14
2018-08-13T17:35:36.538Z,100624.21
2018-08-13T17:38:41.640Z,100626.93
2018-08-13T17:41:10.436Z,100630.63
2018-08-13T17:43:39.446Z,100629.80
2018-08-13T17:46:09.813Z,100633.83
2018-08-13T17:48:39.038Z,100637.88
2018-08-13T17:51:08.198Z,100653.00
2018-08-13T17:53:37.347Z,100662.35
2018-08-13T17:56:06.463Z,100670.77
2018-08-13T17:58:34.967Z,100677.02
2018-08-13T18:01:03.580Z,100680.14
2018-08-13T18:03:32.579Z,100680.59
2018-08-13T18:06:01.557Z,100683.20
2018-08-13T18:08:30.185Z,100673.93
2018-08-13T18:11:29.491Z,100681.50
2018-08-13T18:13:58.554Z,100681.55
2018-08-13T18:16:27.604Z,100677.19
2018-08-13T18:18:56.314Z,100673.67
2018-08-13T18:21:26.338Z,100678.59
2018-08-13T18:23:55.199Z,100680.44
2018-08-13T18:26:32.232Z,100688.44
2018-08-13T18:29:01.136Z,100696.04
2018-08-13T18:31:30.656Z,100691.20
2018-08-13T18:33:59.204Z,100697.01
2018-08-13T18:36:28.332Z,100696.61
2018-08-13T18:38:56.897Z,100699.72
2018-08-13T18:41:25.493Z,100703.28
2018-08-13T18:43:54.020Z,100704.19
2018-08-13T18:46:23.679Z,100706.85
2018-08-13T18:48:52.736Z,100708.18
2018-08-13T18:51:21.356Z,100699.31
2018-08-13T18:53:50.105Z,100705.91
2018-08-13T18:56:18.876Z,100704.55
2018-08-13T18:58:47.904Z,100709.80
2018-08-13T19:01:16.512Z,100699.56
2018-08-13T19:03:45.191Z,100699.99
2018-08-13T19:06:13.817Z,100701.28
2018-08-13T19:08:42.454Z,100695.94
2018-08-13T19:11:11.318Z,100691.89
2018-08-13T19:13:39.979Z,100696.75
2018-08-13T19:16:08.610Z,100703.39
2018-08-13T19:18:37.234Z,100710.47
2018-08-13T19:21:06.388Z,100710.03
2018-08-13T19:23:35.586Z,100713.14
2018-08-13T19:26:04.402Z,100711.36
2018-08-13T19:28:33.344Z,100719.36
2018-08-13T19:31:01.979Z,100722.05
2018-08-13T19:33:30.562Z,100728.70
2018-08-13T19:35:59.152Z,100724.30
2018-08-13T19:38:27.684Z,100725.20
2018-08-13T19:40:56.627Z,100723.44
2018-08-13T19:43:25.324Z,100732.33
2018-08-13T19:45:54.049Z,100731.02
2018-08-13T19:48:22.978Z,100733.27
2018-08-13T19:50:51.850Z,100729.70
2018-08-13T19:53:20.468Z,100731.47
2018-08-13T19:55:48.977Z,100741.69
2018-08-13T19:58:17.843Z,100742.14
2018-08-13T20:00:46.965Z,100746.12
2018-08-13T20:03:16.051Z,100747.00
2018-08-13T20:05:44.592Z,100751.45
2018-08-13T20:08:14.541Z,100756.79
2018-08-13T20:10:43.084Z,100759.05
2018-08-13T20:13:12.045Z,100754.63
2018-08-13T20:15:40.673Z,100753.76
2018-08-13T20:18:09.513Z,100764.85
2018-08-13T20:20:38.612Z,100760.44
2018-08-13T20:23:07.493Z,100759.09
2018-08-13T20:25:36.077Z,100763.08
2018-08-13T20:28:04.831Z,100766.64
2018-08-13T20:30:33.615Z,100774.17
2018-08-13T20:33:02.382Z,100766.64
2018-08-13T20:35:30.985Z,100775.08
2018-08-13T20:38:00.020Z,100775.09
2018-08-13T20:40:29.031Z,100778.65
2018-08-13T20:42:57.681Z,100785.30
2018-08-13T20:45:27.013Z,100780.89
2018-08-13T20:47:55.547Z,100777.80
2018-08-13T20:50:25.075Z,100777.83
2018-08-13T20:52:54.768Z,100781.82
2018-08-13T20:55:25.114Z,100779.62
2018-08-13T20:57:53.714Z,100782.70
2018-08-13T21:00:24.101Z,100782.27
2018-08-13T21:02:52.644Z,100779.61
2018-08-13T21:05:21.257Z,100784.94
2018-08-13T21:07:50.577Z,100789.81
2018-08-13T21:10:20.571Z,100784.50
2018-08-13T21:12:49.550Z,100791.16
2018-08-13T21:15:18.363Z,100792.05
2018-08-13T21:17:47.337Z,100788.50
2018-08-13T21:20:26.482Z,100791.59
2018-08-13T21:22:55.257Z,100794.27
2018-08-13T21:25:24.238Z,100794.72
2018-08-13T21:27:52.751Z,100798.70
2018-08-13T21:30:21.338Z,100799.59
2018-08-13T21:32:50.054Z,100801.36
2018-08-13T21:35:21.775Z,100798.23
2018-08-13T21:37:50.619Z,100805.31
2018-08-13T21:40:19.316Z,100804.86
2018-08-13T21:42:48.749Z,100808.38
2018-08-13T21:45:17.396Z,100807.04
2018-08-13T21:47:46.063Z,100818.10
2018-08-13T21:50:17.152Z,100826.06
2018-08-13T21:52:46.464Z,100822.51
2018-08-13T21:55:15.177Z,100831.81
2018-08-13T21:57:43.885Z,100832.70
2018-08-13T22:00:49.900Z,100825.59
2018-08-13T22:03:18.524Z,100840.67
2018-08-13T22:05:47.089Z,100840.23
2018-08-13T22:08:15.708Z,100840.67
2018-08-13T22:10:44.299Z,100843.33
2018-08-13T22:13:12.848Z,100844.22
2018-08-13T22:15:41.560Z,100840.25
2018-08-13T22:18:14.241Z,100846.47
2018-08-13T22:20:42.847Z,100842.51
2018-08-13T22:23:11.515Z,100844.30
2018-08-13T22:25:42.733Z,100847.86
2018-08-13T22:28:12.266Z,100846.10
2018-08-13T22:30:40.843Z,100853.64
2018-08-13T22:33:10.509Z,100848.78
2018-08-13T22:35:39.170Z,100854.99
2018-08-13T22:38:08.389Z,100851.90
2018-08-13T22:40:37.553Z,100860.33
2018-08-13T22:43:06.915Z,100858.56
2018-08-13T22:45:35.556Z,100855.03
2018-08-13T22:48:04.197Z,100858.58
2018-08-13T22:50:32.776Z,100861.68
2018-08-13T22:53:01.527Z,100861.69
2018-08-13T22:55:30.451Z,100868.33
2018-08-13T22:57:59.089Z,100867.02
2018-08-13T23:00:27.631Z,100876.76
2018-08-13T23:02:56.174Z,100869.67
2018-08-13T23:05:26.695Z,100876.31
2018-08-13T23:07:55.309Z,100874.95
2018-08-13T23:10:24.889Z,100880.27
2018-08-13T23:12:54.860Z,100873.19
2018-08-13T23:15:23.648Z,100881.16
2018-08-13T23:17:53.038Z,100879.38
2018-08-13T23:20:24.368Z,100885.14
2018-08-13T23:22:59.214Z,100885.61
2018-08-13T23:25:28.483Z,100891.36
2018-08-13T23:27:58.090Z,100890.03
2018-08-13T23:30:26.778Z,100887.38
2018-08-13T23:32:56.184Z,100891.36
2018-08-13T23:35:25.597Z,100896.67
2018-08-13T23:37:54.482Z,100894.46
2018-08-13T23:40:23.512Z,100900.67
2018-08-13T23:42:52.191Z,100899.34
2018-08-13T23:45:23.304Z,100904.66
2018-08-13T23:47:51.791Z,100902.00
2018-08-13T23:50:22.151Z,100903.33
2018-08-13T23:52:52.166Z,100902.89
2018-08-13T23:55:28.760Z,100900.67
2018-08-13T23:57:57.588Z,100903.77
